ESGR/KVB METAR and TAF weather

Enter ICAO airport designator
Station Type Date Time Source
ESGR METAR 2019/08/21 08:50 UTC NOAA

ESGR 210850Z AUTO 23010KT 190V260 9999 SCT041/// OVC053/// 16/09 Q1021


Station Type Date Time Source
ESGR Decoded METAR 2019/08/21 08:50 UTC NOAA

Station name not available
Aug 21, 2019 - 04:50 AM EDT / 2019.08.21 0850 UTC
Wind: from the SW (230 degrees) at 12 MPH (10 KT) (direction variable):0
Visibility: greater than 7 mile(s):0
Sky conditions: overcast
Temperature: 60 F (16 C)
Dew Point: 48 F (9 C)
Relative Humidity: 63%
Pressure (altimeter): 30.15 in. Hg (1021 hPa)
ob: ESGR 210850Z AUTO 23010KT 190V260 9999 SCT041/// OVC053/// 16/09 Q1021
cycle: 9

Station Type Date Time Source
ESGR TAF 2009/06/28 04:50 UTC NOAA

METAR ESGR 280450Z AUTO VRB02KT 9999NDV NCD 17/12 Q1020

Example: see airport list